sensor_id;sensor_type;location;lat;lon;timestamp;pressure;altitude;pressure_sealevel;temperature;humidity
59767;BME280;46248;58.364;25.582;2023-02-12T00:00:42;101645.06;;;-6.95;99.54
59767;BME280;46248;58.364;25.582;2023-02-12T00:04:04;101647.53;;;-6.97;99.91
59767;BME280;46248;58.364;25.582;2023-02-12T00:07:28;101668.72;;;-6.98;99.62
59767;BME280;46248;58.364;25.582;2023-02-12T00:10:50;101660.03;;;-7.03;99.29
59767;BME280;46248;58.364;25.582;2023-02-12T00:14:14;101660.72;;;-7.07;99.56
59767;BME280;46248;58.364;25.582;2023-02-12T00:17:36;101666.69;;;-7.06;100.00
59767;BME280;46248;58.364;25.582;2023-02-12T00:20:58;101677.81;;;-7.04;99.42
59767;BME280;46248;58.364;25.582;2023-02-12T00:24:20;101664.78;;;-7.12;99.90
59767;BME280;46248;58.364;25.582;2023-02-12T00:27:42;101687.00;;;-7.08;99.54
59767;BME280;46248;58.364;25.582;2023-02-12T00:31:07;101697.84;;;-7.12;99.22
59767;BME280;46248;58.364;25.582;2023-02-12T00:34:30;101696.88;;;-7.16;99.15
59767;BME280;46248;58.364;25.582;2023-02-12T00:37:52;101706.06;;;-7.19;99.19
59767;BME280;46248;58.364;25.582;2023-02-12T00:41:14;101709.41;;;-7.20;99.19
59767;BME280;46248;58.364;25.582;2023-02-12T00:44:36;101715.19;;;-7.24;98.87
59767;BME280;46248;58.364;25.582;2023-02-12T00:47:59;101717.47;;;-7.30;98.68
59767;BME280;46248;58.364;25.582;2023-02-12T00:51:22;101727.66;;;-7.30;99.16
59767;BME280;46248;58.364;25.582;2023-02-12T00:54:44;101719.78;;;-7.37;99.21
59767;BME280;46248;58.364;25.582;2023-02-12T00:58:06;101724.75;;;-7.40;98.59
59767;BME280;46248;58.364;25.582;2023-02-12T01:01:28;101736.59;;;-7.40;99.15
59767;BME280;46248;58.364;25.582;2023-02-12T01:04:52;101741.69;;;-7.40;98.93
59767;BME280;46248;58.364;25.582;2023-02-12T01:08:15;101745.09;;;-7.40;99.26
59767;BME280;46248;58.364;25.582;2023-02-12T01:11:37;101757.69;;;-7.43;99.28
59767;BME280;46248;58.364;25.582;2023-02-12T01:14:59;101759.28;;;-7.45;99.38
59767;BME280;46248;58.364;25.582;2023-02-12T01:18:21;101750.50;;;-7.53;99.01
59767;BME280;46248;58.364;25.582;2023-02-12T01:21:44;101775.38;;;-7.46;99.28
59767;BME280;46248;58.364;25.582;2023-02-12T01:25:07;101783.00;;;-7.46;99.59
59767;BME280;46248;58.364;25.582;2023-02-12T01:28:29;101772.63;;;-7.50;99.88
59767;BME280;46248;58.364;25.582;2023-02-12T01:31:51;101768.69;;;-7.44;100.00
59767;BME280;46248;58.364;25.582;2023-02-12T01:35:13;101760.09;;;-7.46;100.00
59767;BME280;46248;58.364;25.582;2023-02-12T01:38:36;101774.69;;;-7.42;100.00
59767;BME280;46248;58.364;25.582;2023-02-12T01:41:58;101773.81;;;-7.42;100.00
59767;BME280;46248;58.364;25.582;2023-02-12T01:45:50;101792.31;;;-7.46;99.92
59767;BME280;46248;58.364;25.582;2023-02-12T01:49:19;101799.00;;;-7.48;99.64
59767;BME280;46248;58.364;25.582;2023-02-12T01:52:45;101790.28;;;-7.53;100.00
59767;BME280;46248;58.364;25.582;2023-02-12T01:56:10;101799.81;;;-7.49;99.97
59767;BME280;46248;58.364;25.582;2023-02-12T01:59:33;101807.38;;;-7.51;100.00
59767;BME280;46248;58.364;25.582;2023-02-12T02:02:57;101806.59;;;-7.50;100.00
59767;BME280;46248;58.364;25.582;2023-02-12T02:06:24;101813.41;;;-7.49;100.00
59767;BME280;46248;58.364;25.582;2023-02-12T02:09:47;101821.03;;;-7.49;100.00
59767;BME280;46248;58.364;25.582;2023-02-12T02:13:10;101814.13;;;-7.51;99.88
59767;BME280;46248;58.364;25.582;2023-02-12T02:17:03;101825.78;;;-7.56;100.00
59767;BME280;46248;58.364;25.582;2023-02-12T02:20:55;101812.88;;;-7.61;100.00
59767;BME280;46248;58.364;25.582;2023-02-12T02:28:48;101835.31;;;-7.52;100.00
59767;BME280;46248;58.364;25.582;2023-02-12T02:32:22;101840.44;;;-7.51;100.00
59767;BME280;46248;58.364;25.582;2023-02-12T02:35:50;101838.50;;;-7.56;100.00
59767;BME280;46248;58.364;25.582;2023-02-12T02:39:18;101847.22;;;-7.51;100.00
59767;BME280;46248;58.364;25.582;2023-02-12T02:42:46;101852.28;;;-7.51;100.00
59767;BME280;46248;58.364;25.582;2023-02-12T02:46:16;101849.75;;;-7.51;100.00
59767;BME280;46248;58.364;25.582;2023-02-12T02:49:49;101838.50;;;-7.56;100.00
59767;BME280;46248;58.364;25.582;2023-02-12T02:53:15;101837.59;;;-7.58;100.00
59767;BME280;46248;58.364;25.582;2023-02-12T02:56:42;101830.69;;;-7.61;99.89
59767;BME280;46248;58.364;25.582;2023-02-12T03:00:11;101834.03;;;-7.62;99.46
59767;BME280;46248;58.364;25.582;2023-02-12T03:03:35;101837.97;;;-7.69;99.11
59767;BME280;46248;58.364;25.582;2023-02-12T03:07:05;101849.69;;;-7.72;99.30
59767;BME280;46248;58.364;25.582;2023-02-12T03:10:33;101832.19;;;-7.84;99.50
59767;BME280;46248;58.364;25.582;2023-02-12T03:13:58;101849.34;;;-7.80;98.78
59767;BME280;46248;58.364;25.582;2023-02-12T03:17:25;101857.63;;;-7.84;98.91
59767;BME280;46248;58.364;25.582;2023-02-12T03:20:50;101853.22;;;-7.88;99.48
59767;BME280;46248;58.364;25.582;2023-02-12T03:24:21;101844.50;;;-7.93;99.08
59767;BME280;46248;58.364;25.582;2023-02-12T03:27:47;101859.84;;;-7.92;98.79
59767;BME280;46248;58.364;25.582;2023-02-12T03:31:18;101867.19;;;-7.98;97.80
59767;BME280;46248;58.364;25.582;2023-02-12T03:34:48;101860.69;;;-8.11;97.16
59767;BME280;46248;58.364;25.582;2023-02-12T03:38:17;101871.63;;;-8.12;97.03
59767;BME280;46248;58.364;25.582;2023-02-12T03:41:46;101870.63;;;-8.15;97.44
59767;BME280;46248;58.364;25.582;2023-02-12T03:45:13;101867.13;;;-8.17;97.57
59767;BME280;46248;58.364;25.582;2023-02-12T03:48:43;101867.78;;;-8.21;97.27
59767;BME280;46248;58.364;25.582;2023-02-12T03:52:07;101868.47;;;-8.25;97.21
59767;BME280;46248;58.364;25.582;2023-02-12T03:55:31;101770.59;;;-8.90;97.50
59767;BME280;46248;58.364;25.582;2023-02-12T03:58:57;101863.97;;;-8.31;96.75
59767;BME280;46248;58.364;25.582;2023-02-12T04:02:19;101864.47;;;-8.38;96.43
59767;BME280;46248;58.364;25.582;2023-02-12T04:05:41;101877.84;;;-8.42;96.58
59767;BME280;46248;58.364;25.582;2023-02-12T04:09:05;101872.72;;;-8.44;96.55
59767;BME280;46248;58.364;25.582;2023-02-12T04:12:39;101868.13;;;-8.51;96.05
59767;BME280;46248;58.364;25.582;2023-02-12T04:16:16;101881.78;;;-8.49;96.48
59767;BME280;46248;58.364;25.582;2023-02-12T04:19:50;101891.94;;;-8.49;95.95
59767;BME280;46248;58.364;25.582;2023-02-12T04:23:22;101887.50;;;-8.53;95.95
59767;BME280;46248;58.364;25.582;2023-02-12T04:26:54;101888.94;;;-8.58;95.65
59767;BME280;46248;58.364;25.582;2023-02-12T04:30:20;101880.66;;;-8.72;95.39
59767;BME280;46248;58.364;25.582;2023-02-12T04:33:48;101894.28;;;-8.70;95.42
59767;BME280;46248;58.364;25.582;2023-02-12T04:37:17;101873.75;;;-8.74;95.34
59767;BME280;46248;58.364;25.582;2023-02-12T04:40:40;101876.22;;;-8.76;96.24
59767;BME280;46248;58.364;25.582;2023-02-12T04:44:14;101890.50;;;-8.78;96.07
59767;BME280;46248;58.364;25.582;2023-02-12T04:47:36;101880.13;;;-8.83;96.00
59767;BME280;46248;58.364;25.582;2023-02-12T04:50:59;101881.00;;;-8.82;95.90
59767;BME280;46248;58.364;25.582;2023-02-12T04:54:23;101885.84;;;-8.87;95.42
59767;BME280;46248;58.364;25.582;2023-02-12T04:57:44;101881.41;;;-8.91;95.88
59767;BME280;46248;58.364;25.582;2023-02-12T05:01:06;101881.25;;;-8.94;95.33
59767;BME280;46248;58.364;25.582;2023-02-12T05:04:28;101885.31;;;-8.97;95.50
59767;BME280;46248;58.364;25.582;2023-02-12T05:07:51;101898.06;;;-8.96;95.41
59767;BME280;46248;58.364;25.582;2023-02-12T05:11:13;101901.50;;;-8.95;97.01
59767;BME280;46248;58.364;25.582;2023-02-12T05:14:35;101903.69;;;-9.02;96.48
59767;BME280;46248;58.364;25.582;2023-02-12T05:17:57;101923.69;;;-8.91;96.79
59767;BME280;46248;58.364;25.582;2023-02-12T05:21:19;101929.56;;;-8.92;96.62
59767;BME280;46248;58.364;25.582;2023-02-12T05:24:42;101918.78;;;-8.88;96.81
59767;BME280;46248;58.364;25.582;2023-02-12T05:28:04;101930.59;;;-8.89;96.65
59767;BME280;46248;58.364;25.582;2023-02-12T05:31:26;101921.16;;;-8.91;96.60
59767;BME280;46248;58.364;25.582;2023-02-12T05:34:48;101923.59;;;-8.93;96.17
59767;BME280;46248;58.364;25.582;2023-02-12T05:38:09;101922.53;;;-8.98;96.73
59767;BME280;46248;58.364;25.582;2023-02-12T05:41:33;101921.88;;;-8.94;97.22
59767;BME280;46248;58.364;25.582;2023-02-12T05:44:55;101907.34;;;-8.96;96.98
59767;BME280;46248;58.364;25.582;2023-02-12T05:48:18;101899.91;;;-8.93;97.02
59767;BME280;46248;58.364;25.582;2023-02-12T05:51:39;101918.84;;;-8.87;97.04
59767;BME280;46248;58.364;25.582;2023-02-12T05:55:01;101918.69;;;-8.90;96.23
59767;BME280;46248;58.364;25.582;2023-02-12T05:58:25;101922.34;;;-8.85;97.44
59767;BME280;46248;58.364;25.582;2023-02-12T06:01:48;101907.66;;;-8.90;97.04
59767;BME280;46248;58.364;25.582;2023-02-12T06:05:11;101941.97;;;-8.81;97.26
59767;BME280;46248;58.364;25.582;2023-02-12T06:08:33;101948.97;;;-8.77;97.21
59767;BME280;46248;58.364;25.582;2023-02-12T06:11:54;101949.13;;;-8.73;97.17
59767;BME280;46248;58.364;25.582;2023-02-12T06:15:18;101952.75;;;-8.68;97.82
59767;BME280;46248;58.364;25.582;2023-02-12T06:18:40;101958.94;;;-8.63;98.30
59767;BME280;46248;58.364;25.582;2023-02-12T06:22:01;101939.34;;;-8.66;98.04
59767;BME280;46248;58.364;25.582;2023-02-12T06:25:23;101935.38;;;-8.61;98.18
59767;BME280;46248;58.364;25.582;2023-02-12T06:28:45;101925.44;;;-8.56;98.86
59767;BME280;46248;58.364;25.582;2023-02-12T06:32:09;101927.78;;;-8.43;99.21
59767;BME280;46248;58.364;25.582;2023-02-12T06:35:33;101920.47;;;-8.35;99.43
59767;BME280;46248;58.364;25.582;2023-02-12T06:38:55;101908.88;;;-8.30;100.00
59767;BME280;46248;58.364;25.582;2023-02-12T06:42:17;101920.63;;;-8.14;100.00
59767;BME280;46248;58.364;25.582;2023-02-12T06:45:39;101913.44;;;-8.05;100.00
59767;BME280;46248;58.364;25.582;2023-02-12T06:49:03;101917.59;;;-7.89;100.00
59767;BME280;46248;58.364;25.582;2023-02-12T06:52:25;101919.06;;;-7.75;100.00
59767;BME280;46248;58.364;25.582;2023-02-12T06:55:47;101922.28;;;-7.60;100.00
59767;BME280;46248;58.364;25.582;2023-02-12T06:59:11;101913.06;;;-7.57;100.00
59767;BME280;46248;58.364;25.582;2023-02-12T07:02:34;101928.28;;;-7.40;100.00
59767;BME280;46248;58.364;25.582;2023-02-12T07:06:00;101940.22;;;-7.19;100.00
59767;BME280;46248;58.364;25.582;2023-02-12T07:09:23;101919.44;;;-7.09;100.00
59767;BME280;46248;58.364;25.582;2023-02-12T07:12:45;101912.59;;;-6.91;100.00
59767;BME280;46248;58.364;25.582;2023-02-12T07:16:09;101909.75;;;-6.77;100.00
59767;BME280;46248;58.364;25.582;2023-02-12T07:19:31;101912.81;;;-6.65;100.00
59767;BME280;46248;58.364;25.582;2023-02-12T07:22:54;101923.81;;;-6.45;100.00
59767;BME280;46248;58.364;25.582;2023-02-12T07:26:16;101926.06;;;-6.32;100.00
59767;BME280;46248;58.364;25.582;2023-02-12T07:29:38;101921.38;;;-6.21;100.00
59767;BME280;46248;58.364;25.582;2023-02-12T07:33:00;101928.94;;;-6.02;100.00
59767;BME280;46248;58.364;25.582;2023-02-12T07:36:26;101924.56;;;-5.82;100.00
59767;BME280;46248;58.364;25.582;2023-02-12T07:39:49;101910.53;;;-5.70;100.00
59767;BME280;46248;58.364;25.582;2023-02-12T07:43:12;101918.22;;;-5.46;100.00
59767;BME280;46248;58.364;25.582;2023-02-12T07:46:36;101922.31;;;-5.27;100.00
59767;BME280;46248;58.364;25.582;2023-02-12T07:49:58;101909.22;;;-5.13;100.00
59767;BME280;46248;58.364;25.582;2023-02-12T07:53:20;101900.28;;;-5.00;100.00
59767;BME280;46248;58.364;25.582;2023-02-12T07:56:44;101896.41;;;-4.89;100.00
59767;BME280;46248;58.364;25.582;2023-02-12T08:00:08;101894.34;;;-4.75;100.00
59767;BME280;46248;58.364;25.582;2023-02-12T08:03:31;101894.69;;;-4.64;100.00
59767;BME280;46248;58.364;25.582;2023-02-12T08:06:54;101897.75;;;-4.49;100.00
59767;BME280;46248;58.364;25.582;2023-02-12T08:10:16;101898.97;;;-4.38;100.00
59767;BME280;46248;58.364;25.582;2023-02-12T08:13:43;101900.28;;;-4.23;100.00
59767;BME280;46248;58.364;25.582;2023-02-12T08:17:05;101883.50;;;-4.13;100.00
59767;BME280;46248;58.364;25.582;2023-02-12T08:20:28;101864.97;;;-4.06;100.00
59767;BME280;46248;58.364;25.582;2023-02-12T08:23:50;101856.66;;;-3.99;100.00
59767;BME280;46248;58.364;25.582;2023-02-12T08:27:12;101877.31;;;-3.93;100.00
59767;BME280;46248;58.364;25.582;2023-02-12T08:30:35;101869.91;;;-3.84;100.00
59767;BME280;46248;58.364;25.582;2023-02-12T08:33:58;101870.09;;;-3.78;100.00
59767;BME280;46248;58.364;25.582;2023-02-12T08:37:20;101854.94;;;-3.70;100.00
59767;BME280;46248;58.364;25.582;2023-02-12T08:40:42;101868.09;;;-3.58;100.00
59767;BME280;46248;58.364;25.582;2023-02-12T08:44:04;101872.59;;;-3.49;100.00
59767;BME280;46248;58.364;25.582;2023-02-12T08:47:28;101880.63;;;-3.37;100.00
59767;BME280;46248;58.364;25.582;2023-02-12T08:50:50;101888.59;;;-3.26;100.00
59767;BME280;46248;58.364;25.582;2023-02-12T08:54:14;101894.88;;;-3.15;100.00
59767;BME280;46248;58.364;25.582;2023-02-12T08:57:36;101898.56;;;-3.05;100.00
59767;BME280;46248;58.364;25.582;2023-02-12T09:00:58;101888.47;;;-2.99;100.00
59767;BME280;46248;58.364;25.582;2023-02-12T09:04:23;101881.25;;;-2.81;100.00
59767;BME280;46248;58.364;25.582;2023-02-12T09:07:46;101876.44;;;-2.68;100.00
59767;BME280;46248;58.364;25.582;2023-02-12T09:11:09;101865.63;;;-2.57;100.00
59767;BME280;46248;58.364;25.582;2023-02-12T09:14:32;101852.16;;;-2.46;100.00
59767;BME280;46248;58.364;25.582;2023-02-12T09:17:57;101841.97;;;-2.43;100.00
59767;BME280;46248;58.364;25.582;2023-02-12T09:21:25;101848.38;;;-2.26;100.00
59767;BME280;46248;58.364;25.582;2023-02-12T09:24:46;101818.19;;;-2.36;100.00
59767;BME280;46248;58.364;25.582;2023-02-12T09:28:10;101834.84;;;-2.19;100.00
59767;BME280;46248;58.364;25.582;2023-02-12T09:31:32;101853.06;;;-2.07;100.00
59767;BME280;46248;58.364;25.582;2023-02-12T09:34:54;101836.94;;;-2.01;100.00
59767;BME280;46248;58.364;25.582;2023-02-12T09:38:17;101825.91;;;-1.97;100.00
59767;BME280;46248;58.364;25.582;2023-02-12T09:41:59;101817.47;;;-1.91;100.00
59767;BME280;46248;58.364;25.582;2023-02-12T09:45:25;101806.56;;;-1.79;100.00
59767;BME280;46248;58.364;25.582;2023-02-12T09:48:56;101810.97;;;-1.75;100.00
59767;BME280;46248;58.364;25.582;2023-02-12T10:10:05;101787.22;;;-1.15;100.00
59767;BME280;46248;58.364;25.582;2023-02-12T10:13:38;101795.13;;;-1.06;100.00
59767;BME280;46248;58.364;25.582;2023-02-12T10:17:09;101782.47;;;-0.94;100.00
59767;BME280;46248;58.364;25.582;2023-02-12T10:20:51;101767.84;;;-0.95;100.00
59767;BME280;46248;58.364;25.582;2023-02-12T10:24:28;101779.19;;;-0.83;100.00
59767;BME280;46248;58.364;25.582;2023-02-12T10:27:59;101777.53;;;-0.80;100.00
59767;BME280;46248;58.364;25.582;2023-02-12T10:31:26;101789.53;;;-0.79;100.00
59767;BME280;46248;58.364;25.582;2023-02-12T10:34:51;101775.00;;;-0.78;100.00
59767;BME280;46248;58.364;25.582;2023-02-12T10:38:18;101772.50;;;-0.71;100.00
59767;BME280;46248;58.364;25.582;2023-02-12T10:41:45;101754.63;;;-0.63;100.00
59767;BME280;46248;58.364;25.582;2023-02-12T10:45:14;101734.94;;;-0.61;100.00
59767;BME280;46248;58.364;25.582;2023-02-12T10:48:38;101726.38;;;-0.58;100.00
59767;BME280;46248;58.364;25.582;2023-02-12T10:52:10;101743.78;;;-0.42;100.00
59767;BME280;46248;58.364;25.582;2023-02-12T10:55:35;101733.53;;;-0.39;100.00
59767;BME280;46248;58.364;25.582;2023-02-12T10:58:58;101727.59;;;-0.33;100.00
59767;BME280;46248;58.364;25.582;2023-02-12T11:02:28;101722.53;;;-0.26;99.52
59767;BME280;46248;58.364;25.582;2023-02-12T11:05:50;101710.59;;;-0.20;99.28
59767;BME280;46248;58.364;25.582;2023-02-12T11:09:26;101702.97;;;-0.11;98.87
59767;BME280;46248;58.364;25.582;2023-02-12T11:12:49;101705.53;;;-0.14;98.17
59767;BME280;46248;58.364;25.582;2023-02-12T11:16:11;101693.53;;;-0.11;98.53
59767;BME280;46248;58.364;25.582;2023-02-12T11:19:34;101698.72;;;-0.08;98.44
59767;BME280;46248;58.364;25.582;2023-02-12T11:22:58;101697.94;;;-0.02;98.70
59767;BME280;46248;58.364;25.582;2023-02-12T11:26:26;101668.69;;;-0.07;98.21
59767;BME280;46248;58.364;25.582;2023-02-12T11:30:14;101678.31;;;0.09;98.08
59767;BME280;46248;58.364;25.582;2023-02-12T11:33:36;101675.81;;;0.15;97.97
59767;BME280;46248;58.364;25.582;2023-02-12T11:37:00;101674.13;;;0.19;97.44
59767;BME280;46248;58.364;25.582;2023-02-12T11:40:24;101662.13;;;0.22;97.42
59767;BME280;46248;58.364;25.582;2023-02-12T11:43:47;101660.44;;;0.26;96.84
59767;BME280;46248;58.364;25.582;2023-02-12T11:47:21;101646.69;;;0.24;96.76
59767;BME280;46248;58.364;25.582;2023-02-12T11:50:46;101645.94;;;0.34;96.95
59767;BME280;46248;58.364;25.582;2023-02-12T11:54:17;101653.66;;;0.36;96.46
59767;BME280;46248;58.364;25.582;2023-02-12T11:57:44;101658.81;;;0.34;95.92
59767;BME280;46248;58.364;25.582;2023-02-12T12:01:15;101655.38;;;0.34;96.22
59767;BME280;46248;58.364;25.582;2023-02-12T12:04:39;101657.97;;;0.38;95.59
59767;BME280;46248;58.364;25.582;2023-02-12T12:08:05;101655.47;;;0.43;96.10
59767;BME280;46248;58.364;25.582;2023-02-12T12:11:42;101647.69;;;0.41;96.12
59767;BME280;46248;58.364;25.582;2023-02-12T12:15:16;101632.22;;;0.38;95.78
59767;BME280;46248;58.364;25.582;2023-02-12T12:19:02;101626.25;;;0.42;96.24
59767;BME280;46248;58.364;25.582;2023-02-12T12:22:51;101619.34;;;0.38;94.97
59767;BME280;46248;58.364;25.582;2023-02-12T12:26:21;101621.88;;;0.35;95.21
59767;BME280;46248;58.364;25.582;2023-02-12T12:29:50;101621.06;;;0.41;95.03
59767;BME280;46248;58.364;25.582;2023-02-12T12:33:18;101610.78;;;0.39;95.58
59767;BME280;46248;58.364;25.582;2023-02-12T12:36:55;101594.47;;;0.43;95.79
59767;BME280;46248;58.364;25.582;2023-02-12T12:40:34;101596.22;;;0.48;95.13
59767;BME280;46248;58.364;25.582;2023-02-12T12:44:09;101597.94;;;0.45;95.00
59767;BME280;46248;58.364;25.582;2023-02-12T12:47:51;101585.00;;;0.41;94.85
59767;BME280;46248;58.364;25.582;2023-02-12T12:51:29;101583.31;;;0.43;95.26
59767;BME280;46248;58.364;25.582;2023-02-12T12:55:06;101582.47;;;0.42;95.23
59767;BME280;46248;58.364;25.582;2023-02-12T12:58:42;101577.31;;;0.42;95.61
59767;BME280;46248;58.364;25.582;2023-02-12T13:06:32;101572.16;;;0.47;95.89
59767;BME280;46248;58.364;25.582;2023-02-12T13:10:18;101528.22;;;0.27;95.55
59767;BME280;46248;58.364;25.582;2023-02-12T13:13:45;101552.41;;;0.43;96.61
59767;BME280;46248;58.364;25.582;2023-02-12T13:17:13;101555.81;;;0.43;96.71
59767;BME280;46248;58.364;25.582;2023-02-12T13:20:42;101566.13;;;0.45;97.15
59767;BME280;46248;58.364;25.582;2023-02-12T13:24:19;101539.41;;;0.29;97.48
59767;BME280;46248;58.364;25.582;2023-02-12T13:27:45;101576.47;;;0.47;97.34
59767;BME280;46248;58.364;25.582;2023-02-12T13:31:12;101566.09;;;0.37;97.60
59767;BME280;46248;58.364;25.582;2023-02-12T13:34:56;101573.00;;;0.44;97.70
59767;BME280;46248;58.364;25.582;2023-02-12T13:38:23;101568.66;;;0.39;98.01
59767;BME280;46248;58.364;25.582;2023-02-12T13:42:02;101560.91;;;0.36;98.54
59767;BME280;46248;58.364;25.582;2023-02-12T13:45:38;101554.03;;;0.32;98.91
59767;BME280;46248;58.364;25.582;2023-02-12T13:49:13;101551.44;;;0.33;99.22
59767;BME280;46248;58.364;25.582;2023-02-12T13:52:43;101536.78;;;0.21;99.36
59767;BME280;46248;58.364;25.582;2023-02-12T13:56:19;101539.41;;;0.32;99.76
59767;BME280;46248;58.364;25.582;2023-02-12T13:59:50;101549.72;;;0.32;100.00
59767;BME280;46248;58.364;25.582;2023-02-12T14:03:13;101539.44;;;0.31;99.94
59767;BME280;46248;58.364;25.582;2023-02-12T14:06:35;101544.56;;;0.32;99.95
59767;BME280;46248;58.364;25.582;2023-02-12T14:10:02;101526.53;;;0.31;100.00
59767;BME280;46248;58.364;25.582;2023-02-12T14:13:26;101528.22;;;0.27;100.00
59767;BME280;46248;58.364;25.582;2023-02-12T14:16:55;101533.38;;;0.30;100.00
59767;BME280;46248;58.364;25.582;2023-02-12T14:20:23;101511.03;;;0.26;100.00
59767;BME280;46248;58.364;25.582;2023-02-12T14:23:46;101522.22;;;0.30;100.00
59767;BME280;46248;58.364;25.582;2023-02-12T14:27:19;101520.53;;;0.32;100.00
59767;BME280;46248;58.364;25.582;2023-02-12T14:30:42;101525.66;;;0.30;100.00
59767;BME280;46248;58.364;25.582;2023-02-12T14:34:38;101511.94;;;0.33;100.00
59767;BME280;46248;58.364;25.582;2023-02-12T14:38:02;101514.53;;;0.34;100.00
59767;BME280;46248;58.364;25.582;2023-02-12T14:41:25;101512.81;;;0.35;100.00
59767;BME280;46248;58.364;25.582;2023-02-12T14:45:02;101511.97;;;0.34;100.00
59767;BME280;46248;58.364;25.582;2023-02-12T14:48:39;101493.03;;;0.29;100.00
59767;BME280;46248;58.364;25.582;2023-02-12T14:52:05;101497.31;;;0.27;100.00
59767;BME280;46248;58.364;25.582;2023-02-12T14:55:34;101494.78;;;0.35;100.00
59767;BME280;46248;58.364;25.582;2023-02-12T14:58:57;101495.66;;;0.37;100.00
59767;BME280;46248;58.364;25.582;2023-02-12T15:02:25;101477.56;;;0.25;100.00
59767;BME280;46248;58.364;25.582;2023-02-12T15:05:53;101489.69;;;0.39;100.00
59767;BME280;46248;58.364;25.582;2023-02-12T15:09:25;101479.38;;;0.39;100.00
59767;BME280;46248;58.364;25.582;2023-02-12T15:12:53;101478.50;;;0.42;100.00
59767;BME280;46248;58.364;25.582;2023-02-12T15:16:26;101472.47;;;0.38;100.00
59767;BME280;46248;58.364;25.582;2023-02-12T15:19:54;101452.69;;;0.33;100.00
59767;BME280;46248;58.364;25.582;2023-02-12T15:23:34;101453.56;;;0.36;100.00
59767;BME280;46248;58.364;25.582;2023-02-12T15:26:58;101453.63;;;0.39;100.00
59767;BME280;46248;58.364;25.582;2023-02-12T15:30:23;101445.00;;;0.37;100.00
59767;BME280;46248;58.364;25.582;2023-02-12T15:33:48;101464.81;;;0.46;100.00
59767;BME280;46248;58.364;25.582;2023-02-12T15:37:17;101459.63;;;0.43;100.00
59767;BME280;46248;58.364;25.582;2023-02-12T15:40:53;101457.06;;;0.43;100.00
59767;BME280;46248;58.364;25.582;2023-02-12T15:44:23;101465.66;;;0.48;100.00
59767;BME280;46248;58.364;25.582;2023-02-12T15:47:56;101465.66;;;0.47;100.00
59767;BME280;46248;58.364;25.582;2023-02-12T15:51:25;101456.25;;;0.49;100.00
59767;BME280;46248;58.364;25.582;2023-02-12T15:54:48;101418.31;;;0.29;100.00
59767;BME280;46248;58.364;25.582;2023-02-12T15:58:20;101435.59;;;0.42;100.00
59767;BME280;46248;58.364;25.582;2023-02-12T16:01:51;101445.03;;;0.48;100.00
59767;BME280;46248;58.364;25.582;2023-02-12T16:05:14;101439.91;;;0.50;100.00
59767;BME280;46248;58.364;25.582;2023-02-12T16:08:38;101448.53;;;0.52;100.00
59767;BME280;46248;58.364;25.582;2023-02-12T16:12:03;101442.47;;;0.47;100.00
59767;BME280;46248;58.364;25.582;2023-02-12T16:15:31;101446.81;;;0.52;100.00
59767;BME280;46248;58.364;25.582;2023-02-12T16:19:15;101455.38;;;0.53;100.00
59767;BME280;46248;58.364;25.582;2023-02-12T16:22:39;101453.66;;;0.53;100.00
59767;BME280;46248;58.364;25.582;2023-02-12T16:26:02;101448.53;;;0.55;100.00
59767;BME280;46248;58.364;25.582;2023-02-12T16:29:24;101441.63;;;0.54;100.00
59767;BME280;46248;58.364;25.582;2023-02-12T16:32:47;101431.34;;;0.52;100.00
59767;BME280;46248;58.364;25.582;2023-02-12T16:36:14;101433.03;;;0.50;100.00
59767;BME280;46248;58.364;25.582;2023-02-12T16:40:16;101435.63;;;0.53;100.00
59767;BME280;46248;58.364;25.582;2023-02-12T16:43:41;101435.66;;;0.55;100.00
59767;BME280;46248;58.364;25.582;2023-02-12T16:47:02;101436.50;;;0.55;100.00
59767;BME280;46248;58.364;25.582;2023-02-12T16:50:27;101435.63;;;0.56;100.00
59767;BME280;46248;58.364;25.582;2023-02-12T16:53:51;101415.00;;;0.49;100.00
59767;BME280;46248;58.364;25.582;2023-02-12T16:57:17;101418.44;;;0.49;100.00
59767;BME280;46248;58.364;25.582;2023-02-12T17:00:39;101430.50;;;0.58;100.00
59767;BME280;46248;58.364;25.582;2023-02-12T17:04:05;101431.38;;;0.58;100.00
59767;BME280;46248;58.364;25.582;2023-02-12T17:07:28;101430.50;;;0.59;100.00
59767;BME280;46248;58.364;25.582;2023-02-12T17:10:52;101421.91;;;0.59;100.00
59767;BME280;46248;58.364;25.582;2023-02-12T17:14:15;101421.03;;;0.60;100.00
59767;BME280;46248;58.364;25.582;2023-02-12T17:17:37;101438.28;;;0.64;100.00
59767;BME280;46248;58.364;25.582;2023-02-12T17:21:02;101431.38;;;0.64;100.00
59767;BME280;46248;58.364;25.582;2023-02-12T17:24:27;101435.69;;;0.65;100.00
59767;BME280;46248;58.364;25.582;2023-02-12T17:27:51;101441.69;;;0.66;100.00
59767;BME280;46248;58.364;25.582;2023-02-12T17:31:13;101432.25;;;0.66;100.00
59767;BME280;46248;58.364;25.582;2023-02-12T17:34:35;101430.53;;;0.65;100.00
59767;BME280;46248;58.364;25.582;2023-02-12T17:38:08;101424.50;;;0.63;100.00
59767;BME280;46248;58.364;25.582;2023-02-12T17:41:30;101433.16;;;0.73;100.00
59767;BME280;46248;58.364;25.582;2023-02-12T17:44:54;101431.41;;;0.75;100.00
59767;BME280;46248;58.364;25.582;2023-02-12T17:48:16;101417.66;;;0.75;100.00
59767;BME280;46248;58.364;25.582;2023-02-12T17:51:38;101406.50;;;0.77;100.00
59767;BME280;46248;58.364;25.582;2023-02-12T17:55:00;101395.31;;;0.75;100.00
59767;BME280;46248;58.364;25.582;2023-02-12T17:58:22;101376.41;;;0.68;100.00
59767;BME280;46248;58.364;25.582;2023-02-12T18:01:45;101379.88;;;0.80;100.00
59767;BME280;46248;58.364;25.582;2023-02-12T18:05:08;101375.59;;;0.79;100.00
59767;BME280;46248;58.364;25.582;2023-02-12T18:08:30;101376.44;;;0.76;100.00